sensor_id;sensor_type;location;lat;lon;timestamp;pressure;altitude;pressure_sealevel;temperature;humidity
79376;BME280;68846;53.150;18.136;2023-08-06T00:00:01;100277.48;;;16.64;80.38
79376;BME280;68846;53.150;18.136;2023-08-06T00:02:29;100264.70;;;16.64;80.19
79376;BME280;68846;53.150;18.136;2023-08-06T00:04:57;100264.98;;;16.69;80.14
79376;BME280;68846;53.150;18.136;2023-08-06T00:07:24;100258.95;;;16.66;80.43
79376;BME280;68846;53.150;18.136;2023-08-06T00:09:51;100251.26;;;16.61;80.40
79376;BME280;68846;53.150;18.136;2023-08-06T00:12:19;100236.59;;;16.57;80.55
79376;BME280;68846;53.150;18.136;2023-08-06T00:14:50;100231.48;;;16.54;80.41
79376;BME280;68846;53.150;18.136;2023-08-06T00:17:18;100228.10;;;16.54;80.57
79376;BME280;68846;53.150;18.136;2023-08-06T00:19:45;100225.81;;;16.53;80.53
79376;BME280;68846;53.150;18.136;2023-08-06T00:22:13;100218.34;;;16.53;80.45
79376;BME280;68846;53.150;18.136;2023-08-06T00:24:40;100206.39;;;16.47;80.38
79376;BME280;68846;53.150;18.136;2023-08-06T00:27:07;100218.13;;;16.54;80.31
79376;BME280;68846;53.150;18.136;2023-08-06T00:29:35;100211.37;;;16.55;80.45
79376;BME280;68846;53.150;18.136;2023-08-06T00:32:03;100205.71;;;16.53;80.41
79376;BME280;68846;53.150;18.136;2023-08-06T00:34:30;100191.73;;;16.51;80.39
79376;BME280;68846;53.150;18.136;2023-08-06T00:36:57;100182.52;;;16.50;80.51
79376;BME280;68846;53.150;18.136;2023-08-06T00:39:24;100182.89;;;16.49;80.60
79376;BME280;68846;53.150;18.136;2023-08-06T00:41:52;100177.57;;;16.48;80.61
79376;BME280;68846;53.150;18.136;2023-08-06T00:44:19;100174.05;;;16.46;80.66
79376;BME280;68846;53.150;18.136;2023-08-06T00:46:46;100161.36;;;16.41;80.71
79376;BME280;68846;53.150;18.136;2023-08-06T00:49:14;100172.05;;;16.49;80.79
79376;BME280;68846;53.150;18.136;2023-08-06T00:51:42;100162.87;;;16.46;80.55
79376;BME280;68846;53.150;18.136;2023-08-06T00:54:10;100149.77;;;16.44;80.65
79376;BME280;68846;53.150;18.136;2023-08-06T00:56:38;100143.14;;;16.46;80.61
79376;BME280;68846;53.150;18.136;2023-08-06T00:59:05;100142.64;;;16.45;80.52
79376;BME280;68846;53.150;18.136;2023-08-06T01:01:33;100135.39;;;16.43;80.60
79376;BME280;68846;53.150;18.136;2023-08-06T01:04:01;100135.08;;;16.41;80.58
79376;BME280;68846;53.150;18.136;2023-08-06T01:12:34;100124.77;;;16.42;80.56
79376;BME280;68846;53.150;18.136;2023-08-06T01:15:19;100106.48;;;16.40;80.54
79376;BME280;68846;53.150;18.136;2023-08-06T01:17:49;100095.78;;;16.34;80.73
79376;BME280;68846;53.150;18.136;2023-08-06T01:20:17;100083.36;;;16.34;80.82
79376;BME280;68846;53.150;18.136;2023-08-06T01:22:44;100073.92;;;16.34;80.76
79376;BME280;68846;53.150;18.136;2023-08-06T01:25:14;100063.82;;;16.33;80.98
79376;BME280;68846;53.150;18.136;2023-08-06T01:27:48;100054.27;;;16.31;81.11
79376;BME280;68846;53.150;18.136;2023-08-06T01:30:25;100027.80;;;16.22;81.28
79376;BME280;68846;53.150;18.136;2023-08-06T01:32:59;100028.74;;;16.28;81.40
79376;BME280;68846;53.150;18.136;2023-08-06T01:35:28;100021.96;;;16.29;81.58
79376;BME280;68846;53.150;18.136;2023-08-06T01:38:00;100007.37;;;16.30;81.51
79376;BME280;68846;53.150;18.136;2023-08-06T01:40:28;99994.21;;;16.31;81.53
79376;BME280;68846;53.150;18.136;2023-08-06T01:42:56;99978.36;;;16.33;81.59
79376;BME280;68846;53.150;18.136;2023-08-06T01:45:23;99973.57;;;16.33;81.54
79376;BME280;68846;53.150;18.136;2023-08-06T01:47:51;99981.74;;;16.33;81.57
79376;BME280;68846;53.150;18.136;2023-08-06T01:50:18;99984.41;;;16.32;81.55
79376;BME280;68846;53.150;18.136;2023-08-06T01:52:45;99979.40;;;16.34;81.50
79376;BME280;68846;53.150;18.136;2023-08-06T01:55:13;99976.74;;;16.34;81.61
79376;BME280;68846;53.150;18.136;2023-08-06T01:57:40;99965.09;;;16.31;81.65
79376;BME280;68846;53.150;18.136;2023-08-06T02:00:08;99960.84;;;16.38;81.51
79376;BME280;68846;53.150;18.136;2023-08-06T02:02:41;99949.88;;;16.42;81.48
79376;BME280;68846;53.150;18.136;2023-08-06T02:05:09;99933.37;;;16.41;81.41
79376;BME280;68846;53.150;18.136;2023-08-06T02:07:36;99926.30;;;16.40;81.43
79376;BME280;68846;53.150;18.136;2023-08-06T02:10:04;99912.42;;;16.41;81.63
79376;BME280;68846;53.150;18.136;2023-08-06T02:12:31;99893.77;;;16.40;81.60
79376;BME280;68846;53.150;18.136;2023-08-06T02:14:58;99887.92;;;16.40;81.55
79376;BME280;68846;53.150;18.136;2023-08-06T02:17:25;99885.30;;;16.39;81.72
79376;BME280;68846;53.150;18.136;2023-08-06T02:19:53;99875.91;;;16.38;81.62
79376;BME280;68846;53.150;18.136;2023-08-06T02:22:20;99875.07;;;16.35;81.72
79376;BME280;68846;53.150;18.136;2023-08-06T02:24:49;99870.54;;;16.31;81.76
79376;BME280;68846;53.150;18.136;2023-08-06T02:27:16;99870.39;;;16.31;81.92
79376;BME280;68846;53.150;18.136;2023-08-06T02:29:44;99873.63;;;16.29;82.01
79376;BME280;68846;53.150;18.136;2023-08-06T02:32:12;99876.19;;;16.27;81.89
79376;BME280;68846;53.150;18.136;2023-08-06T02:34:39;99883.13;;;16.26;81.97
79376;BME280;68846;53.150;18.136;2023-08-06T02:37:07;99887.20;;;16.26;82.05
79376;BME280;68846;53.150;18.136;2023-08-06T02:39:34;99881.66;;;16.27;82.01
79376;BME280;68846;53.150;18.136;2023-08-06T02:42:08;99876.98;;;16.30;82.04
79376;BME280;68846;53.150;18.136;2023-08-06T02:44:36;99867.05;;;16.30;82.05
79376;BME280;68846;53.150;18.136;2023-08-06T02:47:05;99868.60;;;16.31;82.13
79376;BME280;68846;53.150;18.136;2023-08-06T02:49:32;99865.79;;;16.29;82.18
79376;BME280;68846;53.150;18.136;2023-08-06T02:52:00;99867.45;;;16.28;82.19
79376;BME280;68846;53.150;18.136;2023-08-06T02:54:27;99865.54;;;16.32;82.17
79376;BME280;68846;53.150;18.136;2023-08-06T02:56:54;99863.67;;;16.36;82.13
79376;BME280;68846;53.150;18.136;2023-08-06T02:59:26;99866.48;;;16.38;82.12
79376;BME280;68846;53.150;18.136;2023-08-06T03:02:04;99868.94;;;16.39;82.18
79376;BME280;68846;53.150;18.136;2023-08-06T03:04:40;99863.75;;;16.40;82.10
79376;BME280;68846;53.150;18.136;2023-08-06T03:07:09;99858.16;;;16.43;82.09
79376;BME280;68846;53.150;18.136;2023-08-06T03:09:43;99848.74;;;16.43;82.03
79376;BME280;68846;53.150;18.136;2023-08-06T03:12:10;99835.73;;;16.45;82.18
79376;BME280;68846;53.150;18.136;2023-08-06T03:14:38;99826.11;;;16.46;82.28
79376;BME280;68846;53.150;18.136;2023-08-06T03:17:06;99828.81;;;16.45;82.19
79376;BME280;68846;53.150;18.136;2023-08-06T03:19:34;99836.56;;;16.46;82.19
79376;BME280;68846;53.150;18.136;2023-08-06T03:22:01;99833.30;;;16.50;82.05
79376;BME280;68846;53.150;18.136;2023-08-06T03:24:28;99838.50;;;16.53;82.19
79376;BME280;68846;53.150;18.136;2023-08-06T03:26:55;99830.67;;;16.54;82.12
79376;BME280;68846;53.150;18.136;2023-08-06T03:29:24;99823.70;;;16.56;82.26
79376;BME280;68846;53.150;18.136;2023-08-06T03:31:52;99824.92;;;16.57;82.20
79376;BME280;68846;53.150;18.136;2023-08-06T03:34:19;99826.08;;;16.59;82.21
79376;BME280;68846;53.150;18.136;2023-08-06T03:36:47;99826.54;;;16.63;82.14
79376;BME280;68846;53.150;18.136;2023-08-06T03:39:15;99826.32;;;16.64;82.17
79376;BME280;68846;53.150;18.136;2023-08-06T03:41:43;99824.70;;;16.65;82.25
79376;BME280;68846;53.150;18.136;2023-08-06T03:44:10;99824.34;;;16.65;82.26
79376;BME280;68846;53.150;18.136;2023-08-06T03:46:37;99813.95;;;16.69;82.28
79376;BME280;68846;53.150;18.136;2023-08-06T03:49:06;99805.85;;;16.72;82.29
79376;BME280;68846;53.150;18.136;2023-08-06T03:51:33;99791.40;;;16.75;82.31
79376;BME280;68846;53.150;18.136;2023-08-06T03:54:00;99780.52;;;16.76;82.20
79376;BME280;68846;53.150;18.136;2023-08-06T03:56:28;99769.58;;;16.79;82.07
79376;BME280;68846;53.150;18.136;2023-08-06T03:58:55;99751.59;;;16.80;82.07
79376;BME280;68846;53.150;18.136;2023-08-06T04:01:22;99737.14;;;16.82;82.17
79376;BME280;68846;53.150;18.136;2023-08-06T04:03:49;99710.55;;;16.84;82.23
79376;BME280;68846;53.150;18.136;2023-08-06T04:06:17;99681.74;;;16.85;82.32
79376;BME280;68846;53.150;18.136;2023-08-06T04:08:44;99660.43;;;16.84;82.56
79376;BME280;68846;53.150;18.136;2023-08-06T04:11:12;99630.48;;;16.81;82.49
79376;BME280;68846;53.150;18.136;2023-08-06T04:13:43;99619.99;;;16.81;82.71
79376;BME280;68846;53.150;18.136;2023-08-06T04:16:11;99640.27;;;16.81;82.54
79376;BME280;68846;53.150;18.136;2023-08-06T04:18:39;99641.13;;;16.81;82.65
79376;BME280;68846;53.150;18.136;2023-08-06T04:21:06;99622.20;;;16.84;82.70
79376;BME280;68846;53.150;18.136;2023-08-06T04:23:33;99624.85;;;16.84;82.98
79376;BME280;68846;53.150;18.136;2023-08-06T04:26:03;99631.05;;;16.80;83.05
79376;BME280;68846;53.150;18.136;2023-08-06T04:28:33;99642.57;;;16.81;83.23
79376;BME280;68846;53.150;18.136;2023-08-06T04:31:00;99645.70;;;16.83;83.15
79376;BME280;68846;53.150;18.136;2023-08-06T04:33:28;99646.48;;;16.87;83.09
79376;BME280;68846;53.150;18.136;2023-08-06T04:35:57;99647.94;;;16.91;83.12
79376;BME280;68846;53.150;18.136;2023-08-06T04:38:24;99634.55;;;16.93;83.13
79376;BME280;68846;53.150;18.136;2023-08-06T04:40:53;99628.04;;;16.96;83.10
79376;BME280;68846;53.150;18.136;2023-08-06T04:43:21;99637.03;;;16.99;83.17
79376;BME280;68846;53.150;18.136;2023-08-06T04:45:50;99633.56;;;17.01;83.16
79376;BME280;68846;53.150;18.136;2023-08-06T04:48:17;99638.24;;;17.05;83.02
79376;BME280;68846;53.150;18.136;2023-08-06T04:50:49;99630.29;;;17.09;83.17
79376;BME280;68846;53.150;18.136;2023-08-06T04:53:17;99621.52;;;17.05;83.06
79376;BME280;68846;53.150;18.136;2023-08-06T04:55:44;99624.73;;;17.10;83.17
79376;BME280;68846;53.150;18.136;2023-08-06T04:58:12;99631.41;;;17.13;83.11
79376;BME280;68846;53.150;18.136;2023-08-06T05:00:40;99632.46;;;17.13;83.11
79376;BME280;68846;53.150;18.136;2023-08-06T05:03:07;99609.08;;;17.17;83.13
79376;BME280;68846;53.150;18.136;2023-08-06T05:05:35;99573.69;;;17.10;83.19
79376;BME280;68846;53.150;18.136;2023-08-06T05:08:02;99565.39;;;17.19;83.36
79376;BME280;68846;53.150;18.136;2023-08-06T05:10:29;99549.15;;;17.21;83.32
79376;BME280;68846;53.150;18.136;2023-08-06T05:12:57;99559.21;;;17.23;83.46
79376;BME280;68846;53.150;18.136;2023-08-06T05:15:24;99556.31;;;17.19;83.37
79376;BME280;68846;53.150;18.136;2023-08-06T05:17:55;99573.66;;;17.27;83.38
79376;BME280;68846;53.150;18.136;2023-08-06T05:20:22;99566.32;;;17.28;83.70
79376;BME280;68846;53.150;18.136;2023-08-06T05:22:49;99572.65;;;17.30;83.55
79376;BME280;68846;53.150;18.136;2023-08-06T05:25:16;99585.34;;;17.34;83.57
79376;BME280;68846;53.150;18.136;2023-08-06T05:27:43;99585.52;;;17.29;83.63
79376;BME280;68846;53.150;18.136;2023-08-06T05:30:11;99586.92;;;17.34;83.52
79376;BME280;68846;53.150;18.136;2023-08-06T05:32:38;99586.23;;;17.34;83.65
79376;BME280;68846;53.150;18.136;2023-08-06T05:35:06;99585.22;;;17.37;83.55
79376;BME280;68846;53.150;18.136;2023-08-06T05:37:33;99586.54;;;17.46;83.48
79376;BME280;68846;53.150;18.136;2023-08-06T05:40:01;99580.40;;;17.53;83.56
79376;BME280;68846;53.150;18.136;2023-08-06T05:42:28;99568.62;;;17.59;83.43
79376;BME280;68846;53.150;18.136;2023-08-06T05:44:56;99556.65;;;17.65;83.28
79376;BME280;68846;53.150;18.136;2023-08-06T05:47:26;99558.39;;;17.72;83.25
79376;BME280;68846;53.150;18.136;2023-08-06T05:49:53;99567.48;;;17.77;83.16
79376;BME280;68846;53.150;18.136;2023-08-06T05:52:20;99571.84;;;17.79;83.21
79376;BME280;68846;53.150;18.136;2023-08-06T05:54:47;99572.39;;;17.79;83.05
79376;BME280;68846;53.150;18.136;2023-08-06T05:57:15;99573.04;;;17.81;83.13
79376;BME280;68846;53.150;18.136;2023-08-06T05:59:42;99567.13;;;17.82;83.21
79376;BME280;68846;53.150;18.136;2023-08-06T06:02:09;99569.14;;;17.80;83.09
79376;BME280;68846;53.150;18.136;2023-08-06T06:04:37;99571.53;;;17.83;83.09
79376;BME280;68846;53.150;18.136;2023-08-06T06:07:04;99565.04;;;17.85;83.16
79376;BME280;68846;53.150;18.136;2023-08-06T06:09:31;99547.68;;;17.88;83.07
79376;BME280;68846;53.150;18.136;2023-08-06T06:11:59;99534.83;;;17.89;83.13
79376;BME280;68846;53.150;18.136;2023-08-06T06:14:26;99533.91;;;17.89;83.01
79376;BME280;68846;53.150;18.136;2023-08-06T06:16:53;99531.20;;;17.86;83.15
79376;BME280;68846;53.150;18.136;2023-08-06T06:19:21;99532.97;;;17.81;83.38
79376;BME280;68846;53.150;18.136;2023-08-06T06:21:48;99525.23;;;17.78;83.43
79376;BME280;68846;53.150;18.136;2023-08-06T06:24:15;99507.75;;;17.74;83.62
79376;BME280;68846;53.150;18.136;2023-08-06T06:26:43;99516.23;;;17.81;83.57
79376;BME280;68846;53.150;18.136;2023-08-06T06:29:10;99515.92;;;17.84;83.53
79376;BME280;68846;53.150;18.136;2023-08-06T06:31:37;99517.13;;;17.85;83.43
79376;BME280;68846;53.150;18.136;2023-08-06T06:34:04;99509.06;;;17.86;83.50
79376;BME280;68846;53.150;18.136;2023-08-06T06:36:31;99500.69;;;17.87;83.53
79376;BME280;68846;53.150;18.136;2023-08-06T06:38:58;99485.92;;;17.82;83.63
79376;BME280;68846;53.150;18.136;2023-08-06T06:41:25;99487.17;;;17.86;83.47
79376;BME280;68846;53.150;18.136;2023-08-06T06:43:53;99492.61;;;17.94;83.41
79376;BME280;68846;53.150;18.136;2023-08-06T06:46:20;99484.83;;;17.96;83.42
79376;BME280;68846;53.150;18.136;2023-08-06T06:48:48;99483.80;;;18.00;83.44
79376;BME280;68846;53.150;18.136;2023-08-06T06:51:16;99482.94;;;18.04;83.49
79376;BME280;68846;53.150;18.136;2023-08-06T06:53:43;99489.66;;;18.05;83.38
79376;BME280;68846;53.150;18.136;2023-08-06T06:56:10;99484.83;;;18.10;83.38
79376;BME280;68846;53.150;18.136;2023-08-06T06:58:37;99484.28;;;18.15;83.47
79376;BME280;68846;53.150;18.136;2023-08-06T07:01:07;99482.27;;;18.16;83.41
79376;BME280;68846;53.150;18.136;2023-08-06T07:03:34;99468.04;;;18.16;83.45
79376;BME280;68846;53.150;18.136;2023-08-06T07:06:01;99468.93;;;18.16;83.49
79376;BME280;68846;53.150;18.136;2023-08-06T07:08:28;99465.34;;;18.17;83.50
79376;BME280;68846;53.150;18.136;2023-08-06T07:11:03;99462.19;;;18.20;83.43
79376;BME280;68846;53.150;18.136;2023-08-06T07:13:33;99465.11;;;18.22;83.56
79376;BME280;68846;53.150;18.136;2023-08-06T07:16:00;99461.97;;;18.21;83.46
79376;BME280;68846;53.150;18.136;2023-08-06T07:18:28;99460.42;;;18.24;83.56
79376;BME280;68846;53.150;18.136;2023-08-06T07:20:56;99456.23;;;18.26;83.44
79376;BME280;68846;53.150;18.136;2023-08-06T07:23:25;99457.54;;;18.29;83.37
79376;BME280;68846;53.150;18.136;2023-08-06T07:25:52;99443.20;;;18.27;83.48
79376;BME280;68846;53.150;18.136;2023-08-06T07:28:20;99447.05;;;18.37;83.34
79376;BME280;68846;53.150;18.136;2023-08-06T07:30:47;99442.42;;;18.42;83.29
79376;BME280;68846;53.150;18.136;2023-08-06T07:33:14;99435.75;;;18.43;83.22
79376;BME280;68846;53.150;18.136;2023-08-06T07:35:42;99422.38;;;18.44;83.13
79376;BME280;68846;53.150;18.136;2023-08-06T07:38:10;99418.48;;;18.47;83.23
79376;BME280;68846;53.150;18.136;2023-08-06T07:40:38;99415.95;;;18.48;83.28
79376;BME280;68846;53.150;18.136;2023-08-06T07:43:06;99405.04;;;18.49;83.20
79376;BME280;68846;53.150;18.136;2023-08-06T07:45:36;99399.77;;;18.52;83.22
79376;BME280;68846;53.150;18.136;2023-08-06T07:48:04;99394.96;;;18.56;83.22
79376;BME280;68846;53.150;18.136;2023-08-06T07:50:31;99388.02;;;18.59;83.18
79376;BME280;68846;53.150;18.136;2023-08-06T07:52:59;99389.19;;;18.62;82.97
79376;BME280;68846;53.150;18.136;2023-08-06T07:55:27;99395.41;;;18.62;82.98
79376;BME280;68846;53.150;18.136;2023-08-06T07:57:54;99396.80;;;18.62;82.88
79376;BME280;68846;53.150;18.136;2023-08-06T08:00:21;99395.48;;;18.64;82.87
79376;BME280;68846;53.150;18.136;2023-08-06T08:02:48;99381.23;;;18.64;82.82
79376;BME280;68846;53.150;18.136;2023-08-06T08:05:15;99379.57;;;18.65;82.84
79376;BME280;68846;53.150;18.136;2023-08-06T08:07:43;99377.66;;;18.69;82.86
79376;BME280;68846;53.150;18.136;2023-08-06T08:10:11;99370.06;;;18.71;82.65
79376;BME280;68846;53.150;18.136;2023-08-06T08:12:38;99374.27;;;18.69;82.59
79376;BME280;68846;53.150;18.136;2023-08-06T08:15:06;99372.23;;;18.71;82.62
79376;BME280;68846;53.150;18.136;2023-08-06T08:17:33;99376.40;;;18.74;82.79
79376;BME280;68846;53.150;18.136;2023-08-06T08:20:01;99370.76;;;18.76;82.66
79376;BME280;68846;53.150;18.136;2023-08-06T08:22:28;99366.19;;;18.79;82.53
79376;BME280;68846;53.150;18.136;2023-08-06T08:24:56;99366.76;;;18.82;82.50
79376;BME280;68846;53.150;18.136;2023-08-06T08:27:24;99354.08;;;18.82;82.46
79376;BME280;68846;53.150;18.136;2023-08-06T08:29:51;99354.54;;;18.92;82.28
79376;BME280;68846;53.150;18.136;2023-08-06T08:32:18;99350.31;;;18.94;82.27
79376;BME280;68846;53.150;18.136;2023-08-06T08:34:45;99346.05;;;18.90;82.09
79376;BME280;68846;53.150;18.136;2023-08-06T08:37:13;99338.83;;;18.92;81.94
79376;BME280;68846;53.150;18.136;2023-08-06T08:39:40;99329.08;;;18.94;82.23
79376;BME280;68846;53.150;18.136;2023-08-06T08:42:10;99324.77;;;18.95;82.05
79376;BME280;68846;53.150;18.136;2023-08-06T08:44:38;99325.65;;;18.96;82.13
79376;BME280;68846;53.150;18.136;2023-08-06T08:47:10;99316.02;;;18.96;82.19
79376;BME280;68846;53.150;18.136;2023-08-06T08:49:38;99309.94;;;18.96;82.07
79376;BME280;68846;53.150;18.136;2023-08-06T08:52:06;99304.19;;;18.97;82.34
79376;BME280;68846;53.150;18.136;2023-08-06T08:54:38;99302.46;;;19.03;82.14
79376;BME280;68846;53.150;18.136;2023-08-06T08:57:07;99305.21;;;19.10;81.98
79376;BME280;68846;53.150;18.136;2023-08-06T08:59:35;99305.31;;;19.11;81.98
79376;BME280;68846;53.150;18.136;2023-08-06T09:02:02;99303.67;;;19.12;82.04
79376;BME280;68846;53.150;18.136;2023-08-06T09:04:30;99300.44;;;19.12;82.02
79376;BME280;68846;53.150;18.136;2023-08-06T09:07:00;99293.66;;;19.13;81.84
79376;BME280;68846;53.150;18.136;2023-08-06T09:09:33;99285.63;;;19.17;81.91
79376;BME280;68846;53.150;18.136;2023-08-06T09:12:01;99277.84;;;19.15;81.93
79376;BME280;68846;53.150;18.136;2023-08-06T09:14:29;99279.50;;;19.14;81.97
79376;BME280;68846;53.150;18.136;2023-08-06T09:16:57;99281.31;;;19.14;82.06
79376;BME280;68846;53.150;18.136;2023-08-06T09:19:24;99283.04;;;19.15;82.24
79376;BME280;68846;53.150;18.136;2023-08-06T09:21:55;99272.61;;;19.12;82.20
79376;BME280;68846;53.150;18.136;2023-08-06T09:24:23;99276.77;;;19.15;82.12
79376;BME280;68846;53.150;18.136;2023-08-06T09:26:50;99273.95;;;19.10;82.23
79376;BME280;68846;53.150;18.136;2023-08-06T09:29:18;99271.05;;;19.11;82.33
79376;BME280;68846;53.150;18.136;2023-08-06T09:31:48;99268.11;;;19.13;82.36
79376;BME280;68846;53.150;18.136;2023-08-06T09:34:23;99262.41;;;19.17;82.31
79376;BME280;68846;53.150;18.136;2023-08-06T09:36:54;99260.48;;;19.20;82.37
79376;BME280;68846;53.150;18.136;2023-08-06T09:39:27;99257.41;;;19.21;82.41
79376;BME280;68846;53.150;18.136;2023-08-06T09:42:02;99250.42;;;19.21;82.30
79376;BME280;68846;53.150;18.136;2023-08-06T09:44:32;99253.98;;;19.25;82.31
79376;BME280;68846;53.150;18.136;2023-08-06T09:47:04;99236.75;;;19.24;82.20
79376;BME280;68846;53.150;18.136;2023-08-06T09:52:01;99232.63;;;19.32;82.38
79376;BME280;68846;53.150;18.136;2023-08-06T09:54:29;99231.15;;;19.36;82.40
79376;BME280;68846;53.150;18.136;2023-08-06T09:56:57;99228.24;;;19.37;82.41
79376;BME280;68846;53.150;18.136;2023-08-06T09:59:25;99218.41;;;19.38;82.32
79376;BME280;68846;53.150;18.136;2023-08-06T10:01:54;99221.61;;;19.38;82.35
79376;BME280;68846;53.150;18.136;2023-08-06T10:04:24;99211.59;;;19.42;82.38
79376;BME280;68846;53.150;18.136;2023-08-06T10:06:52;99205.61;;;19.44;82.38
79376;BME280;68846;53.150;18.136;2023-08-06T10:09:19;99191.63;;;19.48;82.43
79376;BME280;68846;53.150;18.136;2023-08-06T10:11:51;99195.66;;;19.54;82.34
79376;BME280;68846;53.150;18.136;2023-08-06T10:14:28;99190.70;;;19.61;82.40
79376;BME280;68846;53.150;18.136;2023-08-06T10:16:57;99181.59;;;19.64;82.24
79376;BME280;68846;53.150;18.136;2023-08-06T10:19:27;99192.17;;;19.64;82.21
79376;BME280;68846;53.150;18.136;2023-08-06T10:22:13;99191.74;;;19.58;82.26
79376;BME280;68846;53.150;18.136;2023-08-06T10:24:55;99178.26;;;19.60;82.25
79376;BME280;68846;53.150;18.136;2023-08-06T10:27:53;99181.39;;;19.69;82.13
79376;BME280;68846;53.150;18.136;2023-08-06T10:30:27;99177.37;;;19.73;82.15
79376;BME280;68846;53.150;18.136;2023-08-06T10:32:58;99173.22;;;19.75;82.07
79376;BME280;68846;53.150;18.136;2023-08-06T10:38:16;99164.95;;;19.75;82.23
79376;BME280;68846;53.150;18.136;2023-08-06T10:41:02;99161.66;;;19.73;82.21
79376;BME280;68846;53.150;18.136;2023-08-06T10:43:32;99155.09;;;19.73;82.19
79376;BME280;68846;53.150;18.136;2023-08-06T10:46:08;99151.96;;;19.75;82.30
79376;BME280;68846;53.150;18.136;2023-08-06T10:48:45;99144.72;;;19.76;82.39
79376;BME280;68846;53.150;18.136;2023-08-06T10:51:13;99139.08;;;19.79;82.30
79376;BME280;68846;53.150;18.136;2023-08-06T10:53:44;99133.77;;;19.82;82.37
79376;BME280;68846;53.150;18.136;2023-08-06T10:56:23;99135.18;;;19.85;82.34
79376;BME280;68846;53.150;18.136;2023-08-06T10:58:53;99126.14;;;19.90;82.31
79376;BME280;68846;53.150;18.136;2023-08-06T11:01:22;99120.65;;;19.96;82.17
79376;BME280;68846;53.150;18.136;2023-08-06T11:03:51;99120.28;;;20.00;82.13
79376;BME280;68846;53.150;18.136;2023-08-06T11:06:21;99112.44;;;20.00;82.02
79376;BME280;68846;53.150;18.136;2023-08-06T11:08:55;99107.98;;;19.99;82.06
79376;BME280;68846;53.150;18.136;2023-08-06T11:11:23;99100.22;;;20.04;82.21
79376;BME280;68846;53.150;18.136;2023-08-06T11:13:51;99099.65;;;20.05;82.04
79376;BME280;68846;53.150;18.136;2023-08-06T11:16:22;99100.45;;;20.03;82.10
79376;BME280;68846;53.150;18.136;2023-08-06T11:18:52;99093.59;;;20.04;82.16
79376;BME280;68846;53.150;18.136;2023-08-06T11:21:21;99092.30;;;20.09;82.07
79376;BME280;68846;53.150;18.136;2023-08-06T11:23:49;99088.07;;;20.08;81.96
79376;BME280;68846;53.150;18.136;2023-08-06T11:26:21;99082.84;;;20.09;82.02
79376;BME280;68846;53.150;18.136;2023-08-06T11:28:50;99078.74;;;20.09;81.89
79376;BME280;68846;53.150;18.136;2023-08-06T11:31:23;99075.70;;;20.05;81.85
79376;BME280;68846;53.150;18.136;2023-08-06T11:33:53;99076.63;;;20.01;81.95
79376;BME280;68846;53.150;18.136;2023-08-06T11:36:40;99068.34;;;19.99;82.03
79376;BME280;68846;53.150;18.136;2023-08-06T11:39:08;99061.52;;;19.96;81.92
79376;BME280;68846;53.150;18.136;2023-08-06T11:41:36;99042.07;;;19.96;82.09
79376;BME280;68846;53.150;18.136;2023-08-06T11:44:11;99032.89;;;19.97;82.14
79376;BME280;68846;53.150;18.136;2023-08-06T11:46:55;99028.55;;;20.01;82.25
79376;BME280;68846;53.150;18.136;2023-08-06T11:49:47;99027.27;;;20.09;82.20
79376;BME280;68846;53.150;18.136;2023-08-06T11:52:25;99019.46;;;20.14;82.06
79376;BME280;68846;53.150;18.136;2023-08-06T11:55:07;99012.95;;;20.19;82.07
79376;BME280;68846;53.150;18.136;2023-08-06T11:57:38;99008.05;;;20.20;81.90
79376;BME280;68846;53.150;18.136;2023-08-06T12:00:09;99000.56;;;20.19;82.01
79376;BME280;68846;53.150;18.136;2023-08-06T12:02:41;98991.55;;;20.21;82.15
79376;BME280;68846;53.150;18.136;2023-08-06T12:05:11;98989.36;;;20.22;82.09
79376;BME280;68846;53.150;18.136;2023-08-06T12:08:01;98986.30;;;20.25;82.06
79376;BME280;68846;53.150;18.136;2023-08-06T12:10:31;98988.23;;;20.29;81.98
79376;BME280;68846;53.150;18.136;2023-08-06T12:12:58;98992.50;;;20.36;81.85
79376;BME280;68846;53.150;18.136;2023-08-06T12:15:26;98996.27;;;20.42;81.96
79376;BME280;68846;53.150;18.136;2023-08-06T12:17:53;98997.96;;;20.41;81.89
79376;BME280;68846;53.150;18.136;2023-08-06T12:20:21;98999.34;;;20.42;81.79
79376;BME280;68846;53.150;18.136;2023-08-06T12:22:48;98998.23;;;20.42;81.75
79376;BME280;68846;53.150;18.136;2023-08-06T12:25:15;99001.95;;;20.43;81.67
79376;BME280;68846;53.150;18.136;2023-08-06T12:27:44;99003.05;;;20.43;81.70
79376;BME280;68846;53.150;18.136;2023-08-06T12:30:12;98989.27;;;20.33;81.70
79376;BME280;68846;53.150;18.136;2023-08-06T12:32:40;98999.75;;;20.41;81.71
79376;BME280;68846;53.150;18.136;2023-08-06T12:35:08;98989.91;;;20.44;81.52
79376;BME280;68846;53.150;18.136;2023-08-06T12:37:36;98989.79;;;20.47;81.68
79376;BME280;68846;53.150;18.136;2023-08-06T12:40:06;98985.06;;;20.51;81.53
79376;BME280;68846;53.150;18.136;2023-08-06T12:42:33;98983.96;;;20.58;81.48
79376;BME280;68846;53.150;18.136;2023-08-06T12:45:00;98978.35;;;20.63;81.33
79376;BME280;68846;53.150;18.136;2023-08-06T12:47:28;98974.07;;;20.66;81.33
79376;BME280;68846;53.150;18.136;2023-08-06T12:49:55;98954.54;;;20.60;81.29
79376;BME280;68846;53.150;18.136;2023-08-06T12:52:22;98963.21;;;20.67;81.28
79376;BME280;68846;53.150;18.136;2023-08-06T12:54:49;98949.74;;;20.66;81.20
79376;BME280;68846;53.150;18.136;2023-08-06T12:57:16;98960.10;;;20.63;81.49
79376;BME280;68846;53.150;18.136;2023-08-06T12:59:44;98961.77;;;20.65;81.61
79376;BME280;68846;53.150;18.136;2023-08-06T13:02:11;98949.25;;;20.68;81.45
79376;BME280;68846;53.150;18.136;2023-08-06T13:04:39;98934.83;;;20.67;81.52
79376;BME280;68846;53.150;18.136;2023-08-06T13:07:06;98931.13;;;20.69;81.71